sensor_id;sensor_type;location;lat;lon;timestamp;P1;durP1;ratioP1;P2;durP2;ratioP2
42104;SDS011;68365;51.472;5.712;2023-03-23T00:00:09;10.55;;;5.15;;
42104;SDS011;68365;51.472;5.712;2023-03-23T00:02:35;10.68;;;5.50;;
42104;SDS011;68365;51.472;5.712;2023-03-23T00:05:02;10.80;;;5.70;;
42104;SDS011;68365;51.472;5.712;2023-03-23T00:07:32;10.07;;;5.80;;
42104;SDS011;68365;51.472;5.712;2023-03-23T00:09:59;10.65;;;5.13;;
42104;SDS011;68365;51.472;5.712;2023-03-23T00:12:27;14.00;;;5.50;;
42104;SDS011;68365;51.472;5.712;2023-03-23T00:15:02;12.00;;;5.50;;
42104;SDS011;68365;51.472;5.712;2023-03-23T00:17:32;12.35;;;5.43;;
42104;SDS011;68365;51.472;5.712;2023-03-23T00:19:59;12.70;;;5.15;;
42104;SDS011;68365;51.472;5.712;2023-03-23T00:22:30;9.77;;;5.50;;
42104;SDS011;68365;51.472;5.712;2023-03-23T00:25:02;9.73;;;4.82;;
42104;SDS011;68365;51.472;5.712;2023-03-23T00:27:33;10.02;;;5.35;;
42104;SDS011;68365;51.472;5.712;2023-03-23T00:29:59;12.20;;;5.15;;
42104;SDS011;68365;51.472;5.712;2023-03-23T00:32:25;12.82;;;5.85;;
42104;SDS011;68365;51.472;5.712;2023-03-23T00:34:52;8.20;;;4.85;;
42104;SDS011;68365;51.472;5.712;2023-03-23T00:37:18;10.02;;;5.00;;
42104;SDS011;68365;51.472;5.712;2023-03-23T00:39:45;10.50;;;5.25;;
42104;SDS011;68365;51.472;5.712;2023-03-23T00:42:12;8.10;;;4.80;;
42104;SDS011;68365;51.472;5.712;2023-03-23T00:44:39;11.20;;;5.18;;
42104;SDS011;68365;51.472;5.712;2023-03-23T00:47:06;10.25;;;5.03;;
42104;SDS011;68365;51.472;5.712;2023-03-23T00:49:34;10.82;;;4.78;;
42104;SDS011;68365;51.472;5.712;2023-03-23T00:52:00;11.82;;;4.65;;
42104;SDS011;68365;51.472;5.712;2023-03-23T00:54:28;7.03;;;4.80;;
42104;SDS011;68365;51.472;5.712;2023-03-23T00:56:54;10.18;;;5.03;;
42104;SDS011;68365;51.472;5.712;2023-03-23T00:59:21;12.05;;;5.00;;
42104;SDS011;68365;51.472;5.712;2023-03-23T01:01:48;13.15;;;5.32;;
42104;SDS011;68365;51.472;5.712;2023-03-23T01:04:15;10.05;;;5.07;;
42104;SDS011;68365;51.472;5.712;2023-03-23T01:06:42;8.52;;;4.47;;
42104;SDS011;68365;51.472;5.712;2023-03-23T01:09:10;8.63;;;4.85;;
42104;SDS011;68365;51.472;5.712;2023-03-23T01:11:42;11.45;;;4.95;;
42104;SDS011;68365;51.472;5.712;2023-03-23T01:14:09;11.18;;;5.22;;
42104;SDS011;68365;51.472;5.712;2023-03-23T01:16:36;8.98;;;4.55;;
42104;SDS011;68365;51.472;5.712;2023-03-23T01:19:02;9.73;;;4.70;;
42104;SDS011;68365;51.472;5.712;2023-03-23T01:21:28;8.70;;;4.82;;
42104;SDS011;68365;51.472;5.712;2023-03-23T01:23:54;8.30;;;4.60;;
42104;SDS011;68365;51.472;5.712;2023-03-23T01:26:21;10.73;;;4.55;;
42104;SDS011;68365;51.472;5.712;2023-03-23T01:28:49;10.27;;;4.88;;
42104;SDS011;68365;51.472;5.712;2023-03-23T01:31:17;7.00;;;4.22;;
42104;SDS011;68365;51.472;5.712;2023-03-23T01:33:45;7.90;;;4.57;;
42104;SDS011;68365;51.472;5.712;2023-03-23T01:36:16;7.63;;;4.10;;
42104;SDS011;68365;51.472;5.712;2023-03-23T01:38:47;8.45;;;4.35;;
42104;SDS011;68365;51.472;5.712;2023-03-23T01:41:15;9.23;;;4.43;;
42104;SDS011;68365;51.472;5.712;2023-03-23T01:46:41;8.07;;;4.20;;
42104;SDS011;68365;51.472;5.712;2023-03-23T01:49:12;7.65;;;3.80;;
42104;SDS011;68365;51.472;5.712;2023-03-23T01:51:51;9.30;;;4.25;;
42104;SDS011;68365;51.472;5.712;2023-03-23T01:54:22;9.40;;;4.20;;
42104;SDS011;68365;51.472;5.712;2023-03-23T02:01:53;6.45;;;3.80;;
42104;SDS011;68365;51.472;5.712;2023-03-23T02:04:20;7.93;;;4.25;;
42104;SDS011;68365;51.472;5.712;2023-03-23T02:06:48;7.50;;;4.18;;
42104;SDS011;68365;51.472;5.712;2023-03-23T02:09:15;6.88;;;3.80;;
42104;SDS011;68365;51.472;5.712;2023-03-23T02:11:45;6.30;;;4.18;;
42104;SDS011;68365;51.472;5.712;2023-03-23T02:14:12;8.30;;;4.32;;
42104;SDS011;68365;51.472;5.712;2023-03-23T02:25:58;8.25;;;3.97;;
42104;SDS011;68365;51.472;5.712;2023-03-23T02:35:01;6.38;;;3.88;;
42104;SDS011;68365;51.472;5.712;2023-03-23T02:38:04;7.47;;;4.38;;
42104;SDS011;68365;51.472;5.712;2023-03-23T02:40:42;6.03;;;3.55;;
42104;SDS011;68365;51.472;5.712;2023-03-23T02:43:17;9.20;;;4.20;;
42104;SDS011;68365;51.472;5.712;2023-03-23T02:45:47;6.90;;;3.72;;
42104;SDS011;68365;51.472;5.712;2023-03-23T02:48:16;7.28;;;3.88;;
42104;SDS011;68365;51.472;5.712;2023-03-23T02:50:45;7.13;;;3.70;;
42104;SDS011;68365;51.472;5.712;2023-03-23T02:53:17;5.55;;;3.63;;
42104;SDS011;68365;51.472;5.712;2023-03-23T02:55:48;6.10;;;3.53;;
42104;SDS011;68365;51.472;5.712;2023-03-23T02:58:17;6.93;;;3.60;;
42104;SDS011;68365;51.472;5.712;2023-03-23T03:00:44;7.20;;;4.03;;
42104;SDS011;68365;51.472;5.712;2023-03-23T03:03:15;6.28;;;3.80;;
42104;SDS011;68365;51.472;5.712;2023-03-23T03:06:21;5.88;;;3.20;;
42104;SDS011;68365;51.472;5.712;2023-03-23T03:11:39;5.30;;;3.53;;
42104;SDS011;68365;51.472;5.712;2023-03-23T03:14:14;5.32;;;3.33;;
42104;SDS011;68365;51.472;5.712;2023-03-23T03:17:01;6.63;;;3.45;;
42104;SDS011;68365;51.472;5.712;2023-03-23T03:19:56;6.20;;;3.88;;
42104;SDS011;68365;51.472;5.712;2023-03-23T03:22:35;5.95;;;3.45;;
42104;SDS011;68365;51.472;5.712;2023-03-23T03:25:07;6.50;;;3.55;;
42104;SDS011;68365;51.472;5.712;2023-03-23T03:27:34;6.20;;;3.40;;
42104;SDS011;68365;51.472;5.712;2023-03-23T03:30:01;5.75;;;3.42;;
42104;SDS011;68365;51.472;5.712;2023-03-23T03:32:36;7.30;;;3.63;;
42104;SDS011;68365;51.472;5.712;2023-03-23T03:35:09;6.75;;;3.20;;
42104;SDS011;68365;51.472;5.712;2023-03-23T03:37:36;5.28;;;3.13;;
42104;SDS011;68365;51.472;5.712;2023-03-23T03:40:15;5.80;;;3.30;;
42104;SDS011;68365;51.472;5.712;2023-03-23T03:42:43;4.53;;;3.08;;
42104;SDS011;68365;51.472;5.712;2023-03-23T03:45:12;5.15;;;3.20;;
42104;SDS011;68365;51.472;5.712;2023-03-23T03:47:43;5.45;;;3.28;;
42104;SDS011;68365;51.472;5.712;2023-03-23T03:50:09;5.93;;;3.20;;
42104;SDS011;68365;51.472;5.712;2023-03-23T03:52:36;4.93;;;3.10;;
42104;SDS011;68365;51.472;5.712;2023-03-23T03:55:03;4.13;;;3.10;;
42104;SDS011;68365;51.472;5.712;2023-03-23T03:57:31;5.00;;;3.05;;
42104;SDS011;68365;51.472;5.712;2023-03-23T03:59:58;4.22;;;2.95;;
42104;SDS011;68365;51.472;5.712;2023-03-23T04:02:24;6.07;;;3.25;;
42104;SDS011;68365;51.472;5.712;2023-03-23T04:04:50;5.00;;;2.92;;
42104;SDS011;68365;51.472;5.712;2023-03-23T04:07:19;4.55;;;3.00;;
42104;SDS011;68365;51.472;5.712;2023-03-23T04:09:46;5.13;;;3.10;;
42104;SDS011;68365;51.472;5.712;2023-03-23T04:12:15;6.05;;;3.55;;
42104;SDS011;68365;51.472;5.712;2023-03-23T04:14:41;5.38;;;3.10;;
42104;SDS011;68365;51.472;5.712;2023-03-23T04:17:07;5.30;;;2.90;;
42104;SDS011;68365;51.472;5.712;2023-03-23T04:19:36;5.40;;;3.28;;
42104;SDS011;68365;51.472;5.712;2023-03-23T04:22:04;5.85;;;3.00;;
42104;SDS011;68365;51.472;5.712;2023-03-23T04:24:30;5.15;;;3.00;;
42104;SDS011;68365;51.472;5.712;2023-03-23T04:26:58;6.55;;;3.10;;
42104;SDS011;68365;51.472;5.712;2023-03-23T04:29:25;4.32;;;2.75;;
42104;SDS011;68365;51.472;5.712;2023-03-23T04:31:51;5.25;;;3.45;;
42104;SDS011;68365;51.472;5.712;2023-03-23T04:34:18;4.15;;;3.10;;
42104;SDS011;68365;51.472;5.712;2023-03-23T04:36:44;6.13;;;3.08;;
42104;SDS011;68365;51.472;5.712;2023-03-23T04:39:11;6.15;;;2.90;;
42104;SDS011;68365;51.472;5.712;2023-03-23T04:41:38;5.45;;;3.08;;
42104;SDS011;68365;51.472;5.712;2023-03-23T04:44:05;6.03;;;3.30;;
42104;SDS011;68365;51.472;5.712;2023-03-23T04:46:32;5.35;;;3.10;;
42104;SDS011;68365;51.472;5.712;2023-03-23T04:48:58;5.32;;;3.00;;
42104;SDS011;68365;51.472;5.712;2023-03-23T04:51:25;4.38;;;2.97;;
42104;SDS011;68365;51.472;5.712;2023-03-23T04:53:53;4.82;;;2.95;;
42104;SDS011;68365;51.472;5.712;2023-03-23T04:56:21;3.67;;;2.53;;
42104;SDS011;68365;51.472;5.712;2023-03-23T04:58:47;4.18;;;2.65;;
42104;SDS011;68365;51.472;5.712;2023-03-23T05:01:12;5.55;;;3.03;;
42104;SDS011;68365;51.472;5.712;2023-03-23T05:03:39;4.35;;;2.70;;
42104;SDS011;68365;51.472;5.712;2023-03-23T05:06:06;4.60;;;2.88;;
42104;SDS011;68365;51.472;5.712;2023-03-23T05:08:32;4.15;;;2.72;;
42104;SDS011;68365;51.472;5.712;2023-03-23T05:10:59;5.60;;;3.08;;
42104;SDS011;68365;51.472;5.712;2023-03-23T05:13:29;4.65;;;3.00;;
42104;SDS011;68365;51.472;5.712;2023-03-23T05:15:55;3.67;;;2.40;;
42104;SDS011;68365;51.472;5.712;2023-03-23T05:18:20;5.45;;;2.83;;
42104;SDS011;68365;51.472;5.712;2023-03-23T05:20:46;3.75;;;2.78;;
42104;SDS011;68365;51.472;5.712;2023-03-23T05:23:13;4.00;;;2.67;;
42104;SDS011;68365;51.472;5.712;2023-03-23T05:25:39;3.67;;;2.47;;
42104;SDS011;68365;51.472;5.712;2023-03-23T05:28:09;4.13;;;2.75;;
42104;SDS011;68365;51.472;5.712;2023-03-23T05:30:36;4.18;;;2.63;;
42104;SDS011;68365;51.472;5.712;2023-03-23T05:33:03;4.00;;;2.80;;
42104;SDS011;68365;51.472;5.712;2023-03-23T05:35:32;5.25;;;2.97;;
42104;SDS011;68365;51.472;5.712;2023-03-23T05:37:58;4.03;;;2.72;;
42104;SDS011;68365;51.472;5.712;2023-03-23T05:40:24;4.38;;;2.60;;
42104;SDS011;68365;51.472;5.712;2023-03-23T05:42:50;5.28;;;2.95;;
42104;SDS011;68365;51.472;5.712;2023-03-23T05:45:17;4.88;;;2.75;;
42104;SDS011;68365;51.472;5.712;2023-03-23T05:47:44;3.95;;;2.75;;
42104;SDS011;68365;51.472;5.712;2023-03-23T05:50:12;4.28;;;2.65;;
42104;SDS011;68365;51.472;5.712;2023-03-23T05:52:38;4.63;;;2.65;;
42104;SDS011;68365;51.472;5.712;2023-03-23T05:55:05;5.03;;;3.15;;
42104;SDS011;68365;51.472;5.712;2023-03-23T05:57:33;4.15;;;2.70;;
42104;SDS011;68365;51.472;5.712;2023-03-23T05:59:59;3.85;;;2.50;;
42104;SDS011;68365;51.472;5.712;2023-03-23T06:02:31;4.40;;;2.45;;
42104;SDS011;68365;51.472;5.712;2023-03-23T06:04:57;4.40;;;2.50;;
42104;SDS011;68365;51.472;5.712;2023-03-23T06:07:24;4.13;;;2.53;;
42104;SDS011;68365;51.472;5.712;2023-03-23T06:09:50;3.72;;;2.42;;
42104;SDS011;68365;51.472;5.712;2023-03-23T06:12:17;4.40;;;2.70;;
42104;SDS011;68365;51.472;5.712;2023-03-23T06:14:45;4.03;;;2.95;;
42104;SDS011;68365;51.472;5.712;2023-03-23T06:17:14;3.90;;;2.50;;
42104;SDS011;68365;51.472;5.712;2023-03-23T06:19:42;4.40;;;2.83;;
42104;SDS011;68365;51.472;5.712;2023-03-23T06:22:09;4.05;;;2.40;;
42104;SDS011;68365;51.472;5.712;2023-03-23T06:24:35;5.35;;;2.47;;
42104;SDS011;68365;51.472;5.712;2023-03-23T06:27:01;5.18;;;2.55;;
42104;SDS011;68365;51.472;5.712;2023-03-23T06:29:29;4.53;;;2.40;;
42104;SDS011;68365;51.472;5.712;2023-03-23T06:31:57;3.80;;;2.45;;
42104;SDS011;68365;51.472;5.712;2023-03-23T06:34:27;3.05;;;2.20;;
42104;SDS011;68365;51.472;5.712;2023-03-23T06:36:54;4.68;;;2.65;;
42104;SDS011;68365;51.472;5.712;2023-03-23T06:39:21;4.22;;;2.30;;
42104;SDS011;68365;51.472;5.712;2023-03-23T06:41:47;3.85;;;2.30;;
42104;SDS011;68365;51.472;5.712;2023-03-23T06:44:13;4.30;;;2.70;;
42104;SDS011;68365;51.472;5.712;2023-03-23T06:46:40;3.50;;;2.40;;
42104;SDS011;68365;51.472;5.712;2023-03-23T06:49:07;5.28;;;2.60;;
42104;SDS011;68365;51.472;5.712;2023-03-23T06:51:33;5.10;;;2.55;;
42104;SDS011;68365;51.472;5.712;2023-03-23T06:54:00;4.40;;;2.72;;
42104;SDS011;68365;51.472;5.712;2023-03-23T06:56:26;4.50;;;2.40;;
42104;SDS011;68365;51.472;5.712;2023-03-23T06:58:52;4.15;;;2.42;;
42104;SDS011;68365;51.472;5.712;2023-03-23T07:01:18;4.32;;;2.50;;
42104;SDS011;68365;51.472;5.712;2023-03-23T07:03:44;3.75;;;2.35;;
42104;SDS011;68365;51.472;5.712;2023-03-23T07:06:10;2.90;;;2.13;;
42104;SDS011;68365;51.472;5.712;2023-03-23T07:08:37;2.95;;;2.25;;
42104;SDS011;68365;51.472;5.712;2023-03-23T07:11:03;3.95;;;1.95;;
42104;SDS011;68365;51.472;5.712;2023-03-23T07:13:29;4.18;;;2.20;;
42104;SDS011;68365;51.472;5.712;2023-03-23T07:15:55;4.45;;;2.50;;
42104;SDS011;68365;51.472;5.712;2023-03-23T07:18:22;3.22;;;2.20;;
42104;SDS011;68365;51.472;5.712;2023-03-23T07:20:48;3.75;;;2.30;;
42104;SDS011;68365;51.472;5.712;2023-03-23T07:23:17;3.67;;;2.13;;
42104;SDS011;68365;51.472;5.712;2023-03-23T07:25:43;3.92;;;2.42;;
42104;SDS011;68365;51.472;5.712;2023-03-23T07:28:11;3.38;;;2.42;;
42104;SDS011;68365;51.472;5.712;2023-03-23T07:30:37;3.70;;;2.25;;
42104;SDS011;68365;51.472;5.712;2023-03-23T07:33:04;3.47;;;2.00;;
42104;SDS011;68365;51.472;5.712;2023-03-23T07:35:32;6.05;;;2.10;;
42104;SDS011;68365;51.472;5.712;2023-03-23T07:37:58;4.05;;;2.28;;
42104;SDS011;68365;51.472;5.712;2023-03-23T07:40:25;3.65;;;2.30;;
42104;SDS011;68365;51.472;5.712;2023-03-23T07:42:56;6.05;;;2.30;;
42104;SDS011;68365;51.472;5.712;2023-03-23T07:45:22;4.60;;;2.10;;
42104;SDS011;68365;51.472;5.712;2023-03-23T07:47:49;7.13;;;2.20;;
42104;SDS011;68365;51.472;5.712;2023-03-23T07:50:15;4.15;;;2.15;;
42104;SDS011;68365;51.472;5.712;2023-03-23T07:52:43;6.43;;;2.47;;
42104;SDS011;68365;51.472;5.712;2023-03-23T07:55:10;7.13;;;2.17;;
42104;SDS011;68365;51.472;5.712;2023-03-23T07:57:42;3.60;;;2.13;;
42104;SDS011;68365;51.472;5.712;2023-03-23T08:00:09;4.43;;;2.10;;
42104;SDS011;68365;51.472;5.712;2023-03-23T08:02:44;4.65;;;2.22;;
42104;SDS011;68365;51.472;5.712;2023-03-23T08:05:20;5.32;;;2.20;;
42104;SDS011;68365;51.472;5.712;2023-03-23T08:07:47;4.75;;;2.15;;
42104;SDS011;68365;51.472;5.712;2023-03-23T08:10:13;4.18;;;2.13;;
42104;SDS011;68365;51.472;5.712;2023-03-23T08:12:43;6.60;;;2.03;;
42104;SDS011;68365;51.472;5.712;2023-03-23T08:15:11;5.88;;;2.08;;
42104;SDS011;68365;51.472;5.712;2023-03-23T08:17:39;3.55;;;2.20;;
42104;SDS011;68365;51.472;5.712;2023-03-23T08:20:06;4.45;;;2.10;;
42104;SDS011;68365;51.472;5.712;2023-03-23T08:22:37;4.45;;;2.08;;
42104;SDS011;68365;51.472;5.712;2023-03-23T08:25:10;6.70;;;2.50;;
42104;SDS011;68365;51.472;5.712;2023-03-23T08:27:39;3.90;;;2.00;;
42104;SDS011;68365;51.472;5.712;2023-03-23T08:30:12;7.20;;;2.15;;
42104;SDS011;68365;51.472;5.712;2023-03-23T08:32:44;5.82;;;2.28;;
42104;SDS011;68365;51.472;5.712;2023-03-23T08:35:12;6.95;;;2.42;;
42104;SDS011;68365;51.472;5.712;2023-03-23T08:37:40;6.45;;;2.40;;
42104;SDS011;68365;51.472;5.712;2023-03-23T08:40:10;5.53;;;2.03;;
42104;SDS011;68365;51.472;5.712;2023-03-23T08:42:40;3.95;;;2.22;;
42104;SDS011;68365;51.472;5.712;2023-03-23T08:45:09;4.57;;;1.90;;
42104;SDS011;68365;51.472;5.712;2023-03-23T08:47:38;4.18;;;1.85;;
42104;SDS011;68365;51.472;5.712;2023-03-23T08:50:04;3.83;;;2.00;;
42104;SDS011;68365;51.472;5.712;2023-03-23T08:52:32;3.22;;;1.90;;
42104;SDS011;68365;51.472;5.712;2023-03-23T08:54:58;4.13;;;2.00;;
42104;SDS011;68365;51.472;5.712;2023-03-23T08:57:24;7.85;;;2.22;;
42104;SDS011;68365;51.472;5.712;2023-03-23T08:59:51;4.57;;;1.77;;
42104;SDS011;68365;51.472;5.712;2023-03-23T09:02:19;3.58;;;2.30;;
42104;SDS011;68365;51.472;5.712;2023-03-23T09:04:45;7.30;;;2.38;;
42104;SDS011;68365;51.472;5.712;2023-03-23T09:07:11;5.00;;;2.03;;
42104;SDS011;68365;51.472;5.712;2023-03-23T09:09:39;4.97;;;2.13;;
42104;SDS011;68365;51.472;5.712;2023-03-23T09:12:06;5.18;;;2.10;;
42104;SDS011;68365;51.472;5.712;2023-03-23T09:14:34;4.97;;;2.38;;
42104;SDS011;68365;51.472;5.712;2023-03-23T09:17:01;4.38;;;2.10;;
42104;SDS011;68365;51.472;5.712;2023-03-23T09:19:28;3.85;;;2.15;;
42104;SDS011;68365;51.472;5.712;2023-03-23T09:21:55;2.88;;;1.90;;
42104;SDS011;68365;51.472;5.712;2023-03-23T09:24:21;3.55;;;2.35;;
42104;SDS011;68365;51.472;5.712;2023-03-23T09:26:47;3.08;;;2.00;;
42104;SDS011;68365;51.472;5.712;2023-03-23T09:29:13;3.20;;;2.00;;
42104;SDS011;68365;51.472;5.712;2023-03-23T09:31:39;3.65;;;2.00;;
42104;SDS011;68365;51.472;5.712;2023-03-23T09:34:06;4.35;;;2.20;;
42104;SDS011;68365;51.472;5.712;2023-03-23T09:36:34;2.47;;;1.80;;
42104;SDS011;68365;51.472;5.712;2023-03-23T09:39:03;3.38;;;1.95;;
42104;SDS011;68365;51.472;5.712;2023-03-23T09:47:54;3.63;;;2.08;;
42104;SDS011;68365;51.472;5.712;2023-03-23T09:52:45;2.65;;;1.85;;
42104;SDS011;68365;51.472;5.712;2023-03-23T09:55:22;3.95;;;2.03;;
42104;SDS011;68365;51.472;5.712;2023-03-23T10:00:30;3.35;;;2.30;;
42104;SDS011;68365;51.472;5.712;2023-03-23T10:03:18;4.40;;;2.08;;
42104;SDS011;68365;51.472;5.712;2023-03-23T10:05:52;3.60;;;2.28;;
42104;SDS011;68365;51.472;5.712;2023-03-23T10:08:26;3.92;;;1.85;;
42104;SDS011;68365;51.472;5.712;2023-03-23T10:13:57;3.63;;;2.10;;
42104;SDS011;68365;51.472;5.712;2023-03-23T10:20:15;4.85;;;1.92;;
42104;SDS011;68365;51.472;5.712;2023-03-23T10:23:12;4.53;;;2.13;;
42104;SDS011;68365;51.472;5.712;2023-03-23T10:25:49;3.42;;;1.90;;
42104;SDS011;68365;51.472;5.712;2023-03-23T10:28:41;5.72;;;2.63;;
42104;SDS011;68365;51.472;5.712;2023-03-23T10:31:12;5.65;;;2.03;;
42104;SDS011;68365;51.472;5.712;2023-03-23T10:33:45;4.90;;;2.33;;
42104;SDS011;68365;51.472;5.712;2023-03-23T10:36:16;6.80;;;2.22;;
42104;SDS011;68365;51.472;5.712;2023-03-23T10:38:59;4.80;;;1.90;;
42104;SDS011;68365;51.472;5.712;2023-03-23T10:41:43;4.22;;;1.90;;
42104;SDS011;68365;51.472;5.712;2023-03-23T10:44:15;5.70;;;1.92;;
42104;SDS011;68365;51.472;5.712;2023-03-23T10:46:53;4.40;;;2.13;;
42104;SDS011;68365;51.472;5.712;2023-03-23T10:55:00;4.07;;;1.85;;
42104;SDS011;68365;51.472;5.712;2023-03-23T10:57:42;5.00;;;2.25;;
42104;SDS011;68365;51.472;5.712;2023-03-23T11:02:57;3.65;;;1.80;;
42104;SDS011;68365;51.472;5.712;2023-03-23T11:06:00;4.88;;;2.10;;
42104;SDS011;68365;51.472;5.712;2023-03-23T11:08:36;3.53;;;1.90;;
42104;SDS011;68365;51.472;5.712;2023-03-23T11:11:28;6.97;;;1.95;;
42104;SDS011;68365;51.472;5.712;2023-03-23T11:13:57;4.07;;;1.75;;
42104;SDS011;68365;51.472;5.712;2023-03-23T11:16:41;6.40;;;2.03;;
42104;SDS011;68365;51.472;5.712;2023-03-23T11:19:15;3.88;;;1.83;;
42104;SDS011;68365;51.472;5.712;2023-03-23T11:21:53;5.07;;;1.60;;
42104;SDS011;68365;51.472;5.712;2023-03-23T11:24:25;3.80;;;2.25;;
42104;SDS011;68365;51.472;5.712;2023-03-23T11:26:52;5.18;;;1.90;;
42104;SDS011;68365;51.472;5.712;2023-03-23T11:29:22;5.57;;;1.98;;
42104;SDS011;68365;51.472;5.712;2023-03-23T11:32:14;5.75;;;2.05;;
42104;SDS011;68365;51.472;5.712;2023-03-23T11:34:44;5.18;;;2.20;;
42104;SDS011;68365;51.472;5.712;2023-03-23T11:39:57;3.40;;;1.95;;
42104;SDS011;68365;51.472;5.712;2023-03-23T11:42:38;4.45;;;2.17;;
42104;SDS011;68365;51.472;5.712;2023-03-23T11:47:48;4.97;;;2.03;;
42104;SDS011;68365;51.472;5.712;2023-03-23T11:56:35;8.73;;;2.00;;
42104;SDS011;68365;51.472;5.712;2023-03-23T11:59:05;3.55;;;1.80;;
42104;SDS011;68365;51.472;5.712;2023-03-23T12:07:34;4.72;;;2.10;;
42104;SDS011;68365;51.472;5.712;2023-03-23T12:10:19;5.00;;;2.10;;
42104;SDS011;68365;51.472;5.712;2023-03-23T12:13:24;3.75;;;2.28;;
42104;SDS011;68365;51.472;5.712;2023-03-23T12:22:20;4.13;;;1.98;;
42104;SDS011;68365;51.472;5.712;2023-03-23T12:25:08;5.15;;;2.17;;
42104;SDS011;68365;51.472;5.712;2023-03-23T12:30:41;2.90;;;2.00;;
42104;SDS011;68365;51.472;5.712;2023-03-23T12:33:45;5.30;;;2.05;;
42104;SDS011;68365;51.472;5.712;2023-03-23T12:48:26;6.63;;;2.10;;
42104;SDS011;68365;51.472;5.712;2023-03-23T12:51:22;5.07;;;2.00;;
42104;SDS011;68365;51.472;5.712;2023-03-23T12:57:10;5.20;;;2.40;;
42104;SDS011;68365;51.472;5.712;2023-03-23T13:00:04;4.15;;;2.22;;
42104;SDS011;68365;51.472;5.712;2023-03-23T13:02:41;3.20;;;2.00;;
42104;SDS011;68365;51.472;5.712;2023-03-23T13:10:28;3.90;;;2.10;;
42104;SDS011;68365;51.472;5.712;2023-03-23T13:13:18;2.95;;;1.88;;
42104;SDS011;68365;51.472;5.712;2023-03-23T13:16:05;3.90;;;1.95;;
42104;SDS011;68365;51.472;5.712;2023-03-23T13:18:57;4.20;;;2.20;;
42104;SDS011;68365;51.472;5.712;2023-03-23T13:21:47;3.22;;;1.77;;
42104;SDS011;68365;51.472;5.712;2023-03-23T13:24:32;3.50;;;1.90;;
42104;SDS011;68365;51.472;5.712;2023-03-23T13:27:04;4.13;;;1.73;;
42104;SDS011;68365;51.472;5.712;2023-03-23T13:29:36;2.90;;;1.65;;
42104;SDS011;68365;51.472;5.712;2023-03-23T13:32:17;3.30;;;1.75;;
42104;SDS011;68365;51.472;5.712;2023-03-23T13:34:45;11.48;;;2.40;;
42104;SDS011;68365;51.472;5.712;2023-03-23T13:49:54;4.00;;;1.80;;
42104;SDS011;68365;51.472;5.712;2023-03-23T13:55:30;6.20;;;2.33;;
42104;SDS011;68365;51.472;5.712;2023-03-23T13:58:28;5.32;;;1.92;;
42104;SDS011;68365;51.472;5.712;2023-03-23T14:01:08;5.25;;;2.03;;
42104;SDS011;68365;51.472;5.712;2023-03-23T14:03:48;5.78;;;1.60;;
42104;SDS011;68365;51.472;5.712;2023-03-23T14:06:21;5.57;;;1.90;;
42104;SDS011;68365;51.472;5.712;2023-03-23T14:08:50;4.28;;;1.63;;
42104;SDS011;68365;51.472;5.712;2023-03-23T14:11:24;5.97;;;2.00;;
42104;SDS011;68365;51.472;5.712;2023-03-23T14:14:03;4.70;;;1.83;;
42104;SDS011;68365;51.472;5.712;2023-03-23T14:19:01;7.40;;;1.80;;
42104;SDS011;68365;51.472;5.712;2023-03-23T14:21:39;4.95;;;2.00;;
42104;SDS011;68365;51.472;5.712;2023-03-23T14:24:16;6.65;;;2.10;;
42104;SDS011;68365;51.472;5.712;2023-03-23T14:26:49;5.93;;;2.05;;
42104;SDS011;68365;51.472;5.712;2023-03-23T14:29:18;7.05;;;2.17;;
42104;SDS011;68365;51.472;5.712;2023-03-23T14:31:49;9.20;;;2.42;;
42104;SDS011;68365;51.472;5.712;2023-03-23T14:34:23;12.90;;;2.00;;
42104;SDS011;68365;51.472;5.712;2023-03-23T14:36:55;6.10;;;2.17;;
42104;SDS011;68365;51.472;5.712;2023-03-23T14:39:35;6.82;;;2.10;;
42104;SDS011;68365;51.472;5.712;2023-03-23T14:42:12;7.00;;;1.90;;
42104;SDS011;68365;51.472;5.712;2023-03-23T14:44:45;9.10;;;2.10;;
42104;SDS011;68365;51.472;5.712;2023-03-23T14:47:21;13.30;;;2.35;;
42104;SDS011;68365;51.472;5.712;2023-03-23T14:49:52;9.38;;;2.13;;
42104;SDS011;68365;51.472;5.712;2023-03-23T14:52:23;7.40;;;2.10;;
42104;SDS011;68365;51.472;5.712;2023-03-23T14:54:53;10.57;;;2.10;;
42104;SDS011;68365;51.472;5.712;2023-03-23T14:57:26;11.10;;;2.22;;
42104;SDS011;68365;51.472;5.712;2023-03-23T14:59:54;8.48;;;2.03;;
42104;SDS011;68365;51.472;5.712;2023-03-23T15:04:55;9.02;;;2.08;;
42104;SDS011;68365;51.472;5.712;2023-03-23T15:07:34;8.27;;;1.92;;
42104;SDS011;68365;51.472;5.712;2023-03-23T15:10:05;10.55;;;2.03;;
42104;SDS011;68365;51.472;5.712;2023-03-23T15:12:35;8.50;;;2.20;;
42104;SDS011;68365;51.472;5.712;2023-03-23T15:15:02;6.38;;;1.80;;
42104;SDS011;68365;51.472;5.712;2023-03-23T15:17:33;9.60;;;2.15;;
42104;SDS011;68365;51.472;5.712;2023-03-23T15:20:19;11.45;;;2.20;;
42104;SDS011;68365;51.472;5.712;2023-03-23T15:22:49;6.32;;;2.05;;
42104;SDS011;68365;51.472;5.712;2023-03-23T15:27:55;8.88;;;1.88;;
42104;SDS011;68365;51.472;5.712;2023-03-23T15:30:33;8.40;;;2.05;;
42104;SDS011;68365;51.472;5.712;2023-03-23T15:33:12;6.07;;;1.85;;
42104;SDS011;68365;51.472;5.712;2023-03-23T15:35:39;9.38;;;1.83;;
42104;SDS011;68365;51.472;5.712;2023-03-23T15:38:15;5.25;;;1.83;;
42104;SDS011;68365;51.472;5.712;2023-03-23T15:43:33;7.45;;;1.90;;
42104;SDS011;68365;51.472;5.712;2023-03-23T15:48:49;6.85;;;2.22;;
42104;SDS011;68365;51.472;5.712;2023-03-23T15:51:21;9.43;;;1.67;;
42104;SDS011;68365;51.472;5.712;2023-03-23T15:53:51;6.95;;;2.35;;
42104;SDS011;68365;51.472;5.712;2023-03-23T15:56:19;5.40;;;1.70;;
42104;SDS011;68365;51.472;5.712;2023-03-23T15:58:45;6.32;;;1.95;;
42104;SDS011;68365;51.472;5.712;2023-03-23T16:01:12;11.05;;;1.98;;
42104;SDS011;68365;51.472;5.712;2023-03-23T16:03:51;5.38;;;2.00;;
42104;SDS011;68365;51.472;5.712;2023-03-23T16:06:35;10.13;;;1.90;;
42104;SDS011;68365;51.472;5.712;2023-03-23T16:09:03;8.13;;;2.05;;
42104;SDS011;68365;51.472;5.712;2023-03-23T16:11:37;14.13;;;2.15;;
42104;SDS011;68365;51.472;5.712;2023-03-23T16:14:03;8.63;;;1.92;;
42104;SDS011;68365;51.472;5.712;2023-03-23T16:19:11;7.75;;;1.70;;
42104;SDS011;68365;51.472;5.712;2023-03-23T16:21:44;9.90;;;1.92;;
42104;SDS011;68365;51.472;5.712;2023-03-23T16:24:10;11.93;;;2.38;;
42104;SDS011;68365;51.472;5.712;2023-03-23T16:29:12;13.75;;;2.20;;
42104;SDS011;68365;51.472;5.712;2023-03-23T16:32:12;10.77;;;2.10;;
42104;SDS011;68365;51.472;5.712;2023-03-23T16:34:48;9.50;;;2.10;;
42104;SDS011;68365;51.472;5.712;2023-03-23T16:37:17;6.35;;;1.98;;
42104;SDS011;68365;51.472;5.712;2023-03-23T16:39:43;7.03;;;2.15;;
42104;SDS011;68365;51.472;5.712;2023-03-23T16:42:09;8.48;;;1.70;;
42104;SDS011;68365;51.472;5.712;2023-03-23T16:44:35;13.52;;;2.20;;
42104;SDS011;68365;51.472;5.712;2023-03-23T16:47:00;7.18;;;2.08;;
42104;SDS011;68365;51.472;5.712;2023-03-23T16:49:26;9.10;;;1.98;;
42104;SDS011;68365;51.472;5.712;2023-03-23T16:51:52;5.75;;;1.90;;
42104;SDS011;68365;51.472;5.712;2023-03-23T16:54:18;6.22;;;1.80;;
42104;SDS011;68365;51.472;5.712;2023-03-23T16:56:44;9.30;;;2.17;;
42104;SDS011;68365;51.472;5.712;2023-03-23T16:59:12;5.60;;;1.73;;
42104;SDS011;68365;51.472;5.712;2023-03-23T17:01:38;7.45;;;1.92;;
42104;SDS011;68365;51.472;5.712;2023-03-23T17:04:05;8.18;;;2.42;;
42104;SDS011;68365;51.472;5.712;2023-03-23T17:06:31;4.00;;;1.70;;
42104;SDS011;68365;51.472;5.712;2023-03-23T17:08:57;7.78;;;2.50;;
42104;SDS011;68365;51.472;5.712;2023-03-23T17:11:23;12.05;;;2.35;;
42104;SDS011;68365;51.472;5.712;2023-03-23T17:13:48;17.45;;;6.75;;
42104;SDS011;68365;51.472;5.712;2023-03-23T17:16:14;11.93;;;4.57;;
42104;SDS011;68365;51.472;5.712;2023-03-23T17:18:40;15.07;;;4.38;;
42104;SDS011;68365;51.472;5.712;2023-03-23T17:21:06;16.00;;;5.18;;